Station Historical Data
Daily Summary for August 1, 2017 Units:  English    Metric   Both
« Previous Day
Next Day »
Daily Weekly Monthly Yearly Custom
  High: Low: Average:
Temperature: 84.6 °F 65.6 °F 74.6 °F
Dew Point: 69.8 °F 62.9 °F 66.6 °F
Humidity: 93% 52% 77%
Wind Speed: 10.0mph 0.0mph 1.9mph
Wind Gust: 13.0mph - -
Wind- - SW
Pressure: 30.07 in 29.99 in -
Precipitation: 0.00 in    
Historical Graphs
 
 
Tabular Data for August 1, 2017
Time Temperature Dew Point Pressure Wind Wind Speed Wind Gust Humidity Rainfall Rate (Hourly)
00:04 70.4 °F 66.3 °F 30.04 in Calm     87% 0.00 in
00:09 70.4 °F 66.3 °F 30.04 in Calm     87% 0.00 in
00:14 70.3 °F 66.6 °F 30.04 in Calm     88% 0.00 in
00:19 70.6 °F 66.9 °F 30.04 in Calm   2.0 mph 88% 0.00 in
00:24 70.7 °F 67.0 °F 30.05 in Calm   2.0 mph 88% 0.00 in
00:29 70.8 °F 67.1 °F 30.05 in SW 1.0 mph 3.0 mph 88% 0.00 in
00:34 71.0 °F 67.6 °F 30.05 in SW 1.0 mph 4.0 mph 89% 0.00 in
00:39 71.3 °F 67.9 °F 30.05 in SW 1.0 mph 5.0 mph 89% 0.00 in
00:44 71.4 °F 68.0 °F 30.05 in Calm   2.0 mph 89% 0.00 in
00:49 71.3 °F 67.6 °F 30.05 in Calm     88% 0.00 in
00:54 71.1 °F 67.7 °F 30.05 in Calm   1.0 mph 89% 0.00 in
00:59 70.8 °F 67.4 °F 30.05 in Calm     89% 0.00 in
01:04 70.4 °F 67.0 °F 30.05 in Calm     89% 0.00 in
01:09 70.3 °F 66.9 °F 30.06 in Calm     89% 0.00 in
01:14 70.2 °F 66.8 °F 30.06 in Calm     89% 0.00 in
01:19 70.0 °F 66.6 °F 30.05 in Calm     89% 0.00 in
01:24 69.9 °F 66.8 °F 30.05 in Calm     90% 0.00 in
01:29 69.7 °F 66.6 °F 30.05 in Calm     90% 0.00 in
01:34 69.5 °F 66.4 °F 30.06 in Calm     90% 0.00 in
01:39 69.3 °F 66.2 °F 30.06 in Calm     90% 0.00 in
01:44 69.2 °F 66.1 °F 30.05 in Calm     90% 0.00 in
01:49 69.0 °F 65.9 °F 30.05 in Calm     90% 0.00 in
01:54 69.0 °F 65.9 °F 30.05 in Calm   1.0 mph 90% 0.00 in
01:59 68.8 °F 65.7 °F 30.05 in South 3.0 mph 3.0 mph 90% 0.00 in
02:04 68.9 °F 66.2 °F 30.05 in SSW 1.0 mph 3.0 mph 91% 0.00 in
02:09 68.8 °F 66.1 °F 30.05 in Calm   3.0 mph 91% 0.00 in
02:14 68.8 °F 66.1 °F 30.05 in Calm     91% 0.00 in
02:19 68.7 °F 66.0 °F 30.05 in Calm     91% 0.00 in
02:24 68.6 °F 65.9 °F 30.05 in Calm     91% 0.00 in
02:29 68.5 °F 65.8 °F 30.05 in Calm     91% 0.00 in
02:34 68.5 °F 65.8 °F 30.05 in Calm     91% 0.00 in
02:39 68.3 °F 65.6 °F 30.05 in Calm     91% 0.00 in
02:44 68.2 °F 65.5 °F 30.05 in Calm     91% 0.00 in
02:49 67.9 °F 65.2 °F 30.05 in Calm     91% 0.00 in
02:54 67.8 °F 65.1 °F 30.05 in Calm     91% 0.00 in
02:59 67.6 °F 64.9 °F 30.05 in Calm     91% 0.00 in
03:04 67.5 °F 64.8 °F 30.05 in Calm     91% 0.00 in
03:09 67.5 °F 65.1 °F 30.05 in Calm     92% 0.00 in
03:14 67.4 °F 65.0 °F 30.05 in Calm     92% 0.00 in
03:19 67.2 °F 64.8 °F 30.05 in Calm     92% 0.00 in
03:24 67.2 °F 64.8 °F 30.05 in Calm     92% 0.00 in
03:29 67.0 °F 64.6 °F 30.05 in Calm     92% 0.00 in
03:34 66.9 °F 64.5 °F 30.05 in Calm     92% 0.00 in
03:39 66.8 °F 64.4 °F 30.05 in Calm     92% 0.00 in
03:44 66.8 °F 64.4 °F 30.05 in Calm     92% 0.00 in
03:49 66.7 °F 64.3 °F 30.05 in Calm     92% 0.00 in
03:54 66.7 °F 64.3 °F 30.04 in Calm     92% 0.00 in
03:59 66.6 °F 64.2 °F 30.04 in Calm     92% 0.00 in
04:04 66.7 °F 64.3 °F 30.04 in Calm     92% 0.00 in
04:09 66.4 °F 64.0 °F 30.04 in Calm     92% 0.00 in
04:14 66.4 °F 64.0 °F 30.04 in Calm     92% 0.00 in
04:19 66.3 °F 64.2 °F 30.04 in Calm     93% 0.00 in
04:24 66.3 °F 64.2 °F 30.04 in Calm     93% 0.00 in
04:29 66.5 °F 64.4 °F 30.04 in Calm     93% 0.00 in
04:34 66.5 °F 64.4 °F 30.04 in Calm     93% 0.00 in
04:39 66.5 °F 64.4 °F 30.04 in Calm     93% 0.00 in
04:44 66.4 °F 64.0 °F 30.04 in Calm     92% 0.00 in
04:49 66.5 °F 64.4 °F 30.04 in Calm     93% 0.00 in
04:54 66.5 °F 64.1 °F 30.04 in Calm     92% 0.00 in
04:59 66.5 °F 64.1 °F 30.04 in Calm     92% 0.00 in
05:04 66.4 °F 64.0 °F 30.04 in Calm     92% 0.00 in
05:09 66.4 °F 64.0 °F 30.04 in Calm     92% 0.00 in
05:14 66.4 °F 64.0 °F 30.04 in Calm     92% 0.00 in
05:19 66.2 °F 63.8 °F 30.04 in Calm     92% 0.00 in
05:24 66.0 °F 63.3 °F 30.04 in Calm     91% 0.00 in
05:29 65.9 °F 63.2 °F 30.04 in Calm     91% 0.00 in
05:34 66.0 °F 63.6 °F 30.05 in Calm     92% 0.00 in
05:39 66.0 °F 63.3 °F 30.05 in Calm     91% 0.00 in
05:44 65.8 °F 63.1 °F 30.04 in Calm     91% 0.00 in
05:49 65.7 °F 63.0 °F 30.05 in Calm     91% 0.00 in
05:54 65.6 °F 62.9 °F 30.05 in Calm     91% 0.00 in
05:59 65.6 °F 63.2 °F 30.05 in Calm     92% 0.00 in
06:04 65.6 °F 63.2 °F 30.05 in Calm     92% 0.00 in
06:09 65.7 °F 63.3 °F 30.05 in Calm     92% 0.00 in
06:14 65.6 °F 63.2 °F 30.05 in Calm     92% 0.00 in
06:19 65.9 °F 63.5 °F 30.05 in Calm     92% 0.00 in
06:24 66.1 °F 63.7 °F 30.05 in Calm     92% 0.00 in
06:29 66.2 °F 63.8 °F 30.05 in Calm     92% 0.00 in
06:34 66.4 °F 63.7 °F 30.05 in Calm     91% 0.00 in
06:39 66.5 °F 63.8 °F 30.05 in Calm     91% 0.00 in
06:44 66.5 °F 63.8 °F 30.06 in Calm     91% 0.00 in
06:49 66.5 °F 63.8 °F 30.06 in Calm     91% 0.00 in
06:54 66.6 °F 63.9 °F 30.06 in Calm     91% 0.00 in
06:59 66.8 °F 64.1 °F 30.06 in Calm     91% 0.00 in
07:04 66.9 °F 64.2 °F 30.06 in Calm     91% 0.00 in
07:09 67.1 °F 64.4 °F 30.06 in Calm     91% 0.00 in
07:14 67.3 °F 64.3 °F 30.06 in Calm     90% 0.00 in
07:19 67.6 °F 64.6 °F 30.06 in Calm     90% 0.00 in
07:24 68.0 °F 65.0 °F 30.06 in Calm     90% 0.00 in
07:29 68.4 °F 65.4 °F 30.06 in Calm     90% 0.00 in
07:34 68.9 °F 65.8 °F 30.06 in Calm     90% 0.00 in
07:39 69.3 °F 65.9 °F 30.06 in Calm   1.0 mph 89% 0.00 in
07:44 69.6 °F 66.2 °F 30.06 in Calm   1.0 mph 89% 0.00 in
07:49 69.9 °F 66.2 °F 30.06 in Calm     88% 0.00 in
07:54 70.4 °F 66.7 °F 30.06 in Calm     88% 0.00 in
07:59 70.6 °F 66.5 °F 30.06 in Calm     87% 0.00 in
08:04 70.9 °F 66.8 °F 30.06 in Calm     87% 0.00 in
08:09 71.3 °F 66.9 °F 30.07 in Calm     86% 0.00 in
08:14 71.7 °F 67.3 °F 30.07 in Calm     86% 0.00 in
08:19 72.3 °F 67.9 °F 30.07 in Calm     86% 0.00 in
08:24 72.9 °F 67.8 °F 30.07 in Calm     84% 0.00 in
08:29 73.2 °F 68.1 °F 30.07 in Calm     84% 0.00 in
08:34 73.2 °F 67.7 °F 30.07 in Calm   4.0 mph 83% 0.00 in
08:39 73.4 °F 67.9 °F 30.07 in SW 3.0 mph 4.0 mph 83% 0.00 in
08:44 74.0 °F 67.8 °F 30.07 in SW 2.0 mph 5.0 mph 81% 0.00 in
08:49 74.6 °F 68.4 °F 30.07 in WSW 2.0 mph 5.0 mph 81% 0.00 in
08:54 74.6 °F 68.0 °F 30.07 in WSW 2.0 mph 6.0 mph 80% 0.00 in
08:59 75.0 °F 68.0 °F 30.07 in WSW 2.0 mph 6.0 mph 79% 0.00 in
09:04 75.1 °F 68.5 °F 30.07 in WSW 2.0 mph 5.0 mph 80% 0.00 in
09:09 75.0 °F 68.8 °F 30.07 in SW 3.0 mph 6.0 mph 81% 0.00 in
09:14 74.8 °F 68.6 °F 30.06 in SSW 3.0 mph 6.0 mph 81% 0.00 in
09:19 74.9 °F 67.9 °F 30.06 in WSW 1.0 mph 5.0 mph 79% 0.00 in
09:24 75.7 °F 69.1 °F 30.06 in SW 3.0 mph 5.0 mph 80% 0.00 in
09:29 75.9 °F 68.5 °F 30.06 in WSW 3.0 mph 6.0 mph 78% 0.00 in
09:34 76.0 °F 68.6 °F 30.07 in SW 3.0 mph 7.0 mph 78% 0.00 in
09:39 75.8 °F 68.4 °F 30.06 in SW 6.0 mph 8.0 mph 78% 0.00 in
09:44 76.0 °F 68.6 °F 30.06 in SW 3.0 mph 8.0 mph 78% 0.00 in
09:49 76.6 °F 68.5 °F 30.06 in SW 4.0 mph 8.0 mph 76% 0.00 in
09:54 76.5 °F 68.4 °F 30.06 in SW 4.0 mph 9.0 mph 76% 0.00 in
09:59 76.3 °F 68.2 °F 30.07 in SW 5.0 mph 9.0 mph 76% 0.00 in
10:04 76.9 °F 68.8 °F 30.06 in SW 5.0 mph 9.0 mph 76% 0.00 in
10:09 77.0 °F 68.9 °F 30.06 in SW 4.0 mph 9.0 mph 76% 0.00 in
10:14 76.7 °F 68.6 °F 30.06 in SW 4.0 mph 9.0 mph 76% 0.00 in
10:19 77.4 °F 68.5 °F 30.06 in West 4.0 mph 8.0 mph 74% 0.00 in
10:24 77.5 °F 69.3 °F 30.06 in SW 3.0 mph 7.0 mph 76% 0.00 in
10:29 77.6 °F 69.0 °F 30.06 in West 5.0 mph 8.0 mph 75% 0.00 in
10:34 78.0 °F 69.0 °F 30.07 in WSW 1.0 mph 8.0 mph 74% 0.00 in
10:39 78.3 °F 69.3 °F 30.07 in WSW 3.0 mph 8.0 mph 74% 0.00 in
10:44 78.2 °F 68.8 °F 30.07 in SW 4.0 mph 8.0 mph 73% 0.00 in
10:49 78.3 °F 69.3 °F 30.07 in WSW 5.0 mph 7.0 mph 74% 0.00 in
10:54 78.4 °F 68.6 °F 30.07 in SW 4.0 mph 9.0 mph 72% 0.00 in
10:59 79.1 °F 69.3 °F 30.07 in WSW 4.0 mph 9.0 mph 72% 0.00 in
11:04 79.5 °F 69.7 °F 30.07 in WSW 4.0 mph 8.0 mph 72% 0.00 in
11:09 79.5 °F 69.3 °F 30.07 in WSW 3.0 mph 8.0 mph 71% 0.00 in
11:14 79.6 °F 68.5 °F 30.07 in WSW 4.0 mph 9.0 mph 69% 0.00 in
11:19 79.3 °F 68.2 °F 30.06 in WSW 4.0 mph 9.0 mph 69% 0.00 in
11:24 79.8 °F 68.7 °F 30.06 in SW 4.0 mph 8.0 mph 69% 0.00 in
11:29 80.0 °F 69.3 °F 30.06 in SW 4.0 mph 6.0 mph 70% 0.00 in
11:34 80.5 °F 69.4 °F 30.06 in SW 5.0 mph 7.0 mph 69% 0.00 in
11:39 81.2 °F 69.2 °F 30.06 in SSW 4.0 mph 6.0 mph 67% 0.00 in
11:44 80.8 °F 67.9 °F 30.06 in West 4.0 mph 6.0 mph 65% 0.00 in
11:49 80.8 °F 68.8 °F 30.06 in SSW 4.0 mph 8.0 mph 67% 0.00 in
11:54 80.3 °F 69.2 °F 30.06 in SW 4.0 mph 8.0 mph 69% 0.00 in
11:59 80.9 °F 69.8 °F 30.06 in SW 4.0 mph 7.0 mph 69% 0.00 in
12:04 80.5 °F 68.1 °F 30.06 in SW 4.0 mph 8.0 mph 66% 0.00 in
12:09 80.7 °F 68.7 °F 30.06 in WSW 3.0 mph 8.0 mph 67% 0.00 in
12:14 80.6 °F 68.2 °F 30.06 in SW 3.0 mph 7.0 mph 66% 0.00 in
12:19 81.1 °F 69.1 °F 30.06 in WSW 2.0 mph 8.0 mph 67% 0.00 in
12:24 81.1 °F 68.7 °F 30.06 in SW 3.0 mph 5.0 mph 66% 0.00 in
12:29 81.7 °F 69.2 °F 30.06 in WSW 3.0 mph 7.0 mph 66% 0.00 in
12:34 81.1 °F 69.1 °F 30.06 in WSW 4.0 mph 8.0 mph 67% 0.00 in
12:39 81.5 °F 69.0 °F 30.06 in SW 4.0 mph 9.0 mph 66% 0.00 in
12:44 81.5 °F 68.1 °F 30.06 in West 3.0 mph 9.0 mph 64% 0.00 in
12:49 81.7 °F 69.2 °F 30.06 in SW 3.0 mph 6.0 mph 66% 0.00 in
12:54 82.3 °F 68.9 °F 30.06 in WSW 4.0 mph 9.0 mph 64% 0.00 in
12:59 81.9 °F 69.0 °F 30.06 in WSW 4.0 mph 9.0 mph 65% 0.00 in
13:04 82.3 °F 68.4 °F 30.06 in WSW 6.0 mph 10.0 mph 63% 0.00 in
13:09 82.1 °F 68.3 °F 30.05 in SSW 3.0 mph 10.0 mph 63% 0.00 in
13:14 82.4 °F 67.6 °F 30.05 in SW 2.0 mph 11.0 mph 61% 0.00 in
13:19 82.3 °F 67.0 °F 30.05 in West 4.0 mph 8.0 mph 60% 0.00 in
13:24 82.7 °F 67.4 °F 30.05 in WSW 5.0 mph 8.0 mph 60% 0.00 in
13:29 82.7 °F 66.4 °F 30.05 in WSW 4.0 mph 7.0 mph 58% 0.00 in
13:34 82.5 °F 67.7 °F 30.05 in WSW 5.0 mph 10.0 mph 61% 0.00 in
13:39 82.7 °F 67.4 °F 30.04 in WSW 5.0 mph 10.0 mph 60% 0.00 in
13:44 82.6 °F 67.8 °F 30.05 in WSW 5.0 mph 9.0 mph 61% 0.00 in
13:49 83.0 °F 68.6 °F 30.04 in WSW 5.0 mph 11.0 mph 62% 0.00 in
13:54 82.7 °F 67.4 °F 30.04 in SW 5.0 mph 9.0 mph 60% 0.00 in
13:59 82.7 °F 67.9 °F 30.04 in SW 5.0 mph 9.0 mph 61% 0.00 in
14:04 83.2 °F 67.9 °F 30.04 in SW 5.0 mph 10.0 mph 60% 0.00 in
14:09 82.7 °F 68.4 °F 30.03 in South 7.0 mph 9.0 mph 62% 0.00 in
14:14 82.8 °F 66.5 °F 30.04 in SW 5.0 mph 8.0 mph 58% 0.00 in
14:19 83.0 °F 67.2 °F 30.04 in WSW 6.0 mph 10.0 mph 59% 0.00 in
14:24 83.6 °F 67.3 °F 30.04 in SW 10.0 mph 10.0 mph 58% 0.00 in
14:29 83.1 °F 66.3 °F 30.04 in SW 5.0 mph 10.0 mph 57% 0.00 in
14:34 83.3 °F 66.5 °F 30.04 in WSW 4.0 mph 10.0 mph 57% 0.00 in
14:39 83.5 °F 66.2 °F 30.03 in WSW 4.0 mph 8.0 mph 56% 0.00 in
14:44 83.4 °F 66.6 °F 30.03 in SSW 2.0 mph 9.0 mph 57% 0.00 in
14:49 84.0 °F 64.5 °F 30.03 in WSW 5.0 mph 7.0 mph 52% 0.00 in
14:54 84.4 °F 64.9 °F 30.02 in WSW 5.0 mph 11.0 mph 52% 0.00 in
14:59 83.8 °F 65.9 °F 30.02 in SW 4.0 mph 11.0 mph 55% 0.00 in
15:04 84.6 °F 67.2 °F 30.02 in WSW 4.0 mph 8.0 mph 56% 0.00 in
15:09 84.1 °F 65.1 °F 30.02 in SW 5.0 mph 11.0 mph 53% 0.00 in
15:14 83.8 °F 65.4 °F 30.02 in WSW 3.0 mph 9.0 mph 54% 0.00 in
15:19 83.7 °F 65.3 °F 30.02 in West 5.0 mph 13.0 mph 54% 0.00 in
15:24 83.6 °F 65.7 °F 30.02 in West 7.0 mph 7.0 mph 55% 0.00 in
15:29 83.3 °F 66.0 °F 30.02 in WSW 4.0 mph 9.0 mph 56% 0.00 in
15:34 83.3 °F 65.4 °F 30.02 in SW 4.0 mph 9.0 mph 55% 0.00 in
15:39 82.7 °F 65.9 °F 30.01 in SW 5.0 mph 10.0 mph 57% 0.00 in
15:44 82.8 °F 67.0 °F 30.01 in WSW 6.0 mph 10.0 mph 59% 0.00 in
15:49 83.0 °F 66.2 °F 30.01 in SW 5.0 mph 11.0 mph 57% 0.00 in
15:55 82.9 °F 66.1 °F 30.01 in WSW 5.0 mph 11.0 mph 57% 0.00 in
16:00 82.9 °F 66.6 °F 30.02 in WSW 5.0 mph 11.0 mph 58% 0.00 in
16:09 82.7 °F 65.9 °F 30.02 in WSW 2.0 mph 9.0 mph 57% 0.00 in
16:14 82.1 °F 65.9 °F 30.02 in SW 5.0 mph 10.0 mph 58% 0.00 in
16:19 82.3 °F 67.0 °F 30.02 in South 2.0 mph 11.0 mph 60% 0.00 in
16:24 82.5 °F 66.2 °F 30.02 in WSW 5.0 mph 11.0 mph 58% 0.00 in
16:34 81.0 °F 65.8 °F 30.02 in WSW 3.0 mph 10.0 mph 60% 0.00 in
16:39 80.9 °F 66.2 °F 30.02 in WSW 6.0 mph 10.0 mph 61% 0.00 in
16:44 81.3 °F 67.5 °F 30.02 in West 4.0 mph 11.0 mph 63% 0.00 in
16:49 81.5 °F 67.2 °F 30.01 in WNW 4.0 mph 10.0 mph 62% 0.00 in
16:54 81.9 °F 67.1 °F 30.01 in SW 4.0 mph 6.0 mph 61% 0.00 in
16:59 81.6 °F 67.3 °F 30.00 in WSW 4.0 mph 8.0 mph 62% 0.00 in
17:04 81.2 °F 67.9 °F 30.00 in SW 5.0 mph 10.0 mph 64% 0.00 in
17:09 81.4 °F 67.6 °F 30.00 in WSW 5.0 mph 10.0 mph 63% 0.00 in
17:14 81.4 °F 67.6 °F 30.00 in SW 5.0 mph 9.0 mph 63% 0.00 in
17:19 81.3 °F 68.0 °F 29.99 in WSW 4.0 mph 11.0 mph 64% 0.00 in
17:24 81.4 °F 67.6 °F 30.00 in WSW 2.0 mph 8.0 mph 63% 0.00 in
17:29 81.9 °F 66.6 °F 30.00 in WSW 4.0 mph 9.0 mph 60% 0.00 in
17:34 81.8 °F 67.0 °F 30.00 in West 4.0 mph 7.0 mph 61% 0.00 in
17:39 81.8 °F 66.6 °F 29.99 in West 1.0 mph 6.0 mph 60% 0.00 in
17:44 81.6 °F 67.3 °F 30.00 in West 3.0 mph 6.0 mph 62% 0.00 in
17:49 81.1 °F 65.9 °F 29.99 in WNW 3.0 mph 9.0 mph 60% 0.00 in
17:54 80.7 °F 66.0 °F 29.99 in WSW 1.0 mph 7.0 mph 61% 0.00 in
17:59 80.7 °F 66.0 °F 29.99 in WSW 3.0 mph 7.0 mph 61% 0.00 in
18:04 80.6 °F 65.9 °F 29.99 in WSW 3.0 mph 7.0 mph 61% 0.00 in
18:09 80.5 °F 66.3 °F 29.99 in WSW 4.0 mph 7.0 mph 62% 0.00 in
18:14 80.3 °F 65.1 °F 30.00 in WSW 3.0 mph 7.0 mph 60% 0.00 in
18:19 80.1 °F 65.0 °F 30.00 in WSW 3.0 mph 7.0 mph 60% 0.00 in
18:24 80.1 °F 65.9 °F 30.00 in WSW 3.0 mph 7.0 mph 62% 0.00 in
18:29 80.0 °F 65.8 °F 29.99 in SW 2.0 mph 6.0 mph 62% 0.00 in
18:34 79.8 °F 66.5 °F 29.99 in WSW 2.0 mph 7.0 mph 64% 0.00 in
18:39 79.6 °F 66.8 °F 29.99 in SW 4.0 mph 6.0 mph 65% 0.00 in
18:44 79.4 °F 66.2 °F 30.00 in SSW 3.0 mph 5.0 mph 64% 0.00 in
18:49 79.0 °F 67.1 °F 30.00 in SW 1.0 mph 6.0 mph 67% 0.00 in
18:54 78.8 °F 67.3 °F 30.00 in SW 2.0 mph 5.0 mph 68% 0.00 in
18:59 78.7 °F 68.1 °F 30.00 in SSW 2.0 mph 4.0 mph 70% 0.00 in
19:04 78.4 °F 68.2 °F 30.00 in SW 2.0 mph 7.0 mph 71% 0.00 in
19:09 78.0 °F 68.6 °F 30.00 in SW 3.0 mph 7.0 mph 73% 0.00 in
19:14 77.6 °F 67.9 °F 30.00 in SW 3.0 mph 7.0 mph 72% 0.00 in
19:19 77.4 °F 68.1 °F 30.00 in SW 3.0 mph 7.0 mph 73% 0.00 in
19:24 77.4 °F 67.7 °F 30.00 in Calm   4.0 mph 72% 0.00 in
19:29 77.4 °F 66.8 °F 30.00 in WSW 1.0 mph 5.0 mph 70% 0.00 in
19:34 77.3 °F 67.2 °F 30.00 in WSW 2.0 mph 6.0 mph 71% 0.00 in
19:39 77.1 °F 67.0 °F 30.00 in SW 5.0 mph 5.0 mph 71% 0.00 in
19:44 77.2 °F 67.1 °F 30.00 in WSW 3.0 mph 5.0 mph 71% 0.00 in
19:49 77.1 °F 67.0 °F 30.00 in SW 3.0 mph 4.0 mph 71% 0.00 in
19:54 77.0 °F 67.3 °F 30.00 in WSW 3.0 mph 5.0 mph 72% 0.00 in
19:59 76.7 °F 67.4 °F 30.00 in SW 2.0 mph 5.0 mph 73% 0.00 in
20:04 76.6 °F 67.7 °F 30.01 in SW 2.0 mph 5.0 mph 74% 0.00 in
20:09 76.1 °F 66.4 °F 30.01 in WSW 3.0 mph 7.0 mph 72% 0.00 in
20:14 75.9 °F 67.0 °F 30.01 in West 4.0 mph 5.0 mph 74% 0.00 in
20:19 75.6 °F 67.1 °F 30.01 in West 3.0 mph 7.0 mph 75% 0.00 in
20:24 75.4 °F 67.7 °F 30.01 in WSW 1.0 mph 5.0 mph 77% 0.00 in
20:29 75.1 °F 67.8 °F 30.02 in SW 2.0 mph 6.0 mph 78% 0.00 in
20:34 74.9 °F 67.9 °F 30.02 in SW 2.0 mph 7.0 mph 79% 0.00 in
20:39 74.7 °F 68.1 °F 30.02 in SW 2.0 mph 7.0 mph 80% 0.00 in
20:44 74.5 °F 67.9 °F 30.02 in SSW 2.0 mph 5.0 mph 80% 0.00 in
20:49 74.4 °F 67.8 °F 30.02 in Calm   4.0 mph 80% 0.00 in
20:54 74.3 °F 68.1 °F 30.02 in WSW 1.0 mph 3.0 mph 81% 0.00 in
20:59 74.0 °F 67.8 °F 30.02 in SW 1.0 mph 4.0 mph 81% 0.00 in
21:04 73.9 °F 68.1 °F 30.03 in SW 2.0 mph 5.0 mph 82% 0.00 in
21:09 73.9 °F 68.4 °F 30.03 in Calm   4.0 mph 83% 0.00 in
21:14 73.8 °F 68.3 °F 30.02 in SW 1.0 mph 4.0 mph 83% 0.00 in
21:19 73.7 °F 68.2 °F 30.02 in SW 1.0 mph 3.0 mph 83% 0.00 in
21:24 73.4 °F 68.3 °F 30.02 in SW 3.0 mph 4.0 mph 84% 0.00 in
21:29 73.3 °F 68.2 °F 30.02 in SW 1.0 mph 4.0 mph 84% 0.00 in
21:34 73.2 °F 68.4 °F 30.02 in SW 1.0 mph 5.0 mph 85% 0.00 in
21:39 73.2 °F 68.4 °F 30.02 in SSW 2.0 mph 7.0 mph 85% 0.00 in
21:44 73.2 °F 68.4 °F 30.02 in SSW 2.0 mph 7.0 mph 85% 0.00 in
21:49 73.2 °F 68.4 °F 30.01 in SSW 2.0 mph 6.0 mph 85% 0.00 in
21:54 73.1 °F 68.3 °F 30.01 in SSW 1.0 mph 5.0 mph 85% 0.00 in
21:59 72.9 °F 67.8 °F 30.01 in Calm   2.0 mph 84% 0.00 in
22:04 72.7 °F 67.6 °F 30.01 in SW 1.0 mph 3.0 mph 84% 0.00 in
22:09 72.7 °F 67.6 °F 30.01 in Calm   3.0 mph 84% 0.00 in
22:14 72.6 °F 67.1 °F 30.01 in Calm     83% 0.00 in
22:19 72.6 °F 67.1 °F 30.01 in Calm     83% 0.00 in
22:24 72.4 °F 66.9 °F 30.01 in Calm     83% 0.00 in
22:29 72.3 °F 66.8 °F 30.01 in Calm     83% 0.00 in
22:34 72.0 °F 66.6 °F 30.01 in Calm     83% 0.00 in
22:39 72.0 °F 66.6 °F 30.01 in Calm     83% 0.00 in
22:44 71.8 °F 66.0 °F 30.01 in Calm     82% 0.00 in
22:49 71.7 °F 65.9 °F 30.02 in Calm     82% 0.00 in
22:54 71.6 °F 65.8 °F 30.02 in Calm     82% 0.00 in
22:59 71.6 °F 65.5 °F 30.02 in Calm     81% 0.00 in
23:04 71.5 °F 65.4 °F 30.02 in Calm     81% 0.00 in
23:09 71.3 °F 65.2 °F 30.02 in Calm     81% 0.00 in
23:14 71.2 °F 65.1 °F 30.01 in Calm     81% 0.00 in
23:19 71.0 °F 64.9 °F 30.02 in Calm     81% 0.00 in
23:24 70.9 °F 64.8 °F 30.02 in Calm     81% 0.00 in
23:29 70.9 °F 64.4 °F 30.02 in Calm     80% 0.00 in
23:34 70.8 °F 64.3 °F 30.02 in Calm     80% 0.00 in
23:39 70.7 °F 64.2 °F 30.02 in Calm     80% 0.00 in
23:44 70.6 °F 64.1 °F 30.02 in Calm     80% 0.00 in
23:49 70.4 °F 63.9 °F 30.02 in Calm     80% 0.00 in
23:54 70.2 °F 63.7 °F 30.02 in Calm     80% 0.00 in
23:59 70.0 °F 63.5 °F 30.02 in Calm     80% 0.00 in
Buffalo, New York, USA
Compliments of Weather Underground - 2.5 mb